createdAt,value
2018-08-27T00:00:23.607Z,71.00
2018-08-27T00:02:27.109Z,71.00
2018-08-27T00:04:30.676Z,70.70
2018-08-27T00:06:34.182Z,70.00
2018-08-27T00:08:37.890Z,70.90
2018-08-27T00:10:41.757Z,70.60
2018-08-27T00:12:45.298Z,70.60
2018-08-27T00:14:48.788Z,71.50
2018-08-27T00:16:52.345Z,71.50
2018-08-27T00:18:55.857Z,71.60
2018-08-27T00:20:59.510Z,71.20
2018-08-27T00:23:03.330Z,71.50
2018-08-27T00:25:06.858Z,71.20
2018-08-27T00:27:10.427Z,71.50
2018-08-27T00:29:13.957Z,72.60
2018-08-27T00:31:17.491Z,72.00
2018-08-27T00:33:21.123Z,71.40
2018-08-27T00:35:25.086Z,71.20
2018-08-27T00:37:28.663Z,71.30
2018-08-27T00:39:32.281Z,71.20
2018-08-27T00:41:35.819Z,70.90
2018-08-27T00:43:39.639Z,70.50
2018-08-27T00:45:43.147Z,70.90
2018-08-27T00:47:46.782Z,70.70
2018-08-27T00:49:50.287Z,70.60
2018-08-27T00:51:53.911Z,70.10
2018-08-27T00:53:57.558Z,70.40
2018-08-27T00:56:01.197Z,70.50
2018-08-27T00:58:04.796Z,71.40
2018-08-27T01:00:08.842Z,71.50
2018-08-27T01:02:12.487Z,71.40
2018-08-27T01:04:16.101Z,72.00
2018-08-27T01:06:19.678Z,71.90
2018-08-27T01:08:23.287Z,72.10
2018-08-27T01:10:26.892Z,72.20
2018-08-27T01:12:30.485Z,72.40
2018-08-27T01:14:34.035Z,72.50
2018-08-27T01:16:37.639Z,72.50
2018-08-27T01:18:41.248Z,72.40
2018-08-27T01:20:44.754Z,72.90
2018-08-27T01:22:48.452Z,73.00
2018-08-27T01:24:51.993Z,72.10
2018-08-27T01:26:55.483Z,72.70
2018-08-27T01:28:59.336Z,72.80
2018-08-27T01:31:02.882Z,72.70
2018-08-27T01:33:06.680Z,72.60
2018-08-27T01:35:10.170Z,72.50
2018-08-27T01:37:13.707Z,71.60
2018-08-27T01:39:17.371Z,71.70
2018-08-27T01:41:20.932Z,71.90
2018-08-27T01:43:24.423Z,71.90
2018-08-27T01:45:28.096Z,72.10
2018-08-27T01:47:31.595Z,72.40
2018-08-27T01:49:35.152Z,72.60
2018-08-27T01:51:38.712Z,72.60
2018-08-27T01:53:42.218Z,72.40
2018-08-27T01:55:45.843Z,71.90
2018-08-27T01:57:49.488Z,72.10
2018-08-27T01:59:53.185Z,72.10
2018-08-27T02:01:56.639Z,71.60
2018-08-27T02:04:00.162Z,71.60
2018-08-27T02:06:03.699Z,71.40
2018-08-27T02:08:07.305Z,72.10
2018-08-27T02:10:10.931Z,72.30
2018-08-27T02:12:14.487Z,72.30
2018-08-27T02:14:18.228Z,72.40
2018-08-27T02:16:21.768Z,72.70
2018-08-27T02:18:25.302Z,72.60
2018-08-27T02:20:28.859Z,72.30
2018-08-27T02:22:32.355Z,72.50
2018-08-27T02:24:35.882Z,72.20
2018-08-27T02:26:39.460Z,72.00
2018-08-27T02:28:43.003Z,71.80
2018-08-27T02:30:46.529Z,72.30
2018-08-27T02:32:50.084Z,71.80
2018-08-27T02:34:53.648Z,72.00
2018-08-27T02:36:57.189Z,71.90
2018-08-27T02:39:00.674Z,72.10
2018-08-27T02:41:04.196Z,72.20
2018-08-27T02:43:07.718Z,71.40
2018-08-27T02:45:11.295Z,71.20
2018-08-27T02:47:14.832Z,71.90
2018-08-27T02:49:18.356Z,72.60
2018-08-27T02:51:21.890Z,73.10
2018-08-27T02:53:26.024Z,72.80
2018-08-27T02:55:29.599Z,72.20
2018-08-27T02:57:34.095Z,72.30
2018-08-27T02:59:37.675Z,73.30
2018-08-27T03:01:41.235Z,73.00
2018-08-27T03:03:45.164Z,72.20
2018-08-27T03:05:48.692Z,72.50
2018-08-27T03:07:52.331Z,72.80
2018-08-27T03:09:55.968Z,72.50
2018-08-27T03:11:59.549Z,72.50
2018-08-27T03:14:03.093Z,72.70
2018-08-27T03:16:06.607Z,73.00
2018-08-27T03:18:10.259Z,73.10
2018-08-27T03:20:13.923Z,73.60
2018-08-27T03:22:17.913Z,73.50
2018-08-27T03:24:28.159Z,73.60
2018-08-27T03:26:31.663Z,73.60
2018-08-27T03:28:35.347Z,74.20
2018-08-27T03:30:38.936Z,73.20
2018-08-27T03:32:42.424Z,73.00
2018-08-27T03:34:45.913Z,72.10
2018-08-27T03:36:49.796Z,71.40
2018-08-27T03:38:53.355Z,71.90
2018-08-27T03:40:56.965Z,72.60
2018-08-27T03:43:00.465Z,73.50
2018-08-27T03:45:04.148Z,73.80
2018-08-27T03:47:07.787Z,73.60
2018-08-27T03:49:11.316Z,73.60
2018-08-27T03:51:14.936Z,73.30
2018-08-27T03:53:18.426Z,72.90
2018-08-27T03:55:21.995Z,72.80
2018-08-27T03:57:25.573Z,72.60
2018-08-27T03:59:29.067Z,73.00
2018-08-27T04:01:32.584Z,72.50
2018-08-27T04:03:36.118Z,72.30
2018-08-27T04:05:39.619Z,72.80
2018-08-27T04:07:43.403Z,72.40
2018-08-27T04:09:46.940Z,72.70
2018-08-27T04:11:50.518Z,72.80
2018-08-27T04:13:54.013Z,72.10
2018-08-27T04:15:57.524Z,71.50
2018-08-27T04:18:01.115Z,72.10
2018-08-27T04:20:04.863Z,72.70
2018-08-27T04:22:08.414Z,73.20
2018-08-27T04:24:11.962Z,73.30
2018-08-27T04:26:15.452Z,73.60
2018-08-27T04:28:18.999Z,73.50
2018-08-27T04:30:22.520Z,73.20
2018-08-27T04:32:26.267Z,73.50
2018-08-27T04:34:29.842Z,73.80
2018-08-27T04:36:33.346Z,73.70
2018-08-27T04:38:36.948Z,72.90
2018-08-27T04:40:40.467Z,73.10
2018-08-27T04:42:44.093Z,73.30
2018-08-27T04:44:47.535Z,73.20
2018-08-27T04:46:51.077Z,72.90
2018-08-27T04:48:54.602Z,73.30
2018-08-27T04:50:58.198Z,73.10
2018-08-27T04:53:01.724Z,73.50
2018-08-27T04:55:05.389Z,72.80
2018-08-27T04:57:08.912Z,72.80
2018-08-27T04:59:18.214Z,73.00
2018-08-27T05:01:21.727Z,72.60
2018-08-27T05:03:25.263Z,72.40
2018-08-27T05:05:28.840Z,72.50
2018-08-27T05:07:32.439Z,72.10
2018-08-27T05:09:35.932Z,72.20
2018-08-27T05:11:39.967Z,72.70
2018-08-27T05:13:43.604Z,72.40
2018-08-27T05:15:47.355Z,72.40
2018-08-27T05:17:50.875Z,72.80
2018-08-27T05:19:54.371Z,72.00
2018-08-27T05:21:58.008Z,72.40
2018-08-27T05:24:01.627Z,72.50
2018-08-27T05:26:05.184Z,72.10
2018-08-27T05:28:08.739Z,72.90
2018-08-27T05:30:12.527Z,73.20
2018-08-27T05:32:16.017Z,73.50
2018-08-27T05:34:19.537Z,72.70
2018-08-27T05:36:23.191Z,72.60
2018-08-27T05:38:26.750Z,73.70
2018-08-27T05:40:30.251Z,74.20
2018-08-27T05:42:33.768Z,73.60
2018-08-27T05:44:37.396Z,72.10
2018-08-27T05:46:40.992Z,71.60
2018-08-27T05:48:44.550Z,71.30
2018-08-27T05:50:48.028Z,71.10
2018-08-27T05:52:51.495Z,70.40
2018-08-27T05:54:55.010Z,70.00
2018-08-27T05:56:58.564Z,69.80
2018-08-27T05:59:02.053Z,69.70
2018-08-27T06:01:05.683Z,70.40
2018-08-27T06:03:09.510Z,69.40
2018-08-27T06:05:12.997Z,70.40
2018-08-27T06:07:16.487Z,71.10
2018-08-27T06:09:20.084Z,71.20
2018-08-27T06:11:23.609Z,72.30
2018-08-27T06:13:27.132Z,71.70
2018-08-27T06:15:30.716Z,71.30
2018-08-27T06:17:34.201Z,71.50
2018-08-27T06:19:37.719Z,71.70
2018-08-27T06:21:41.279Z,71.20
2018-08-27T06:23:44.898Z,71.00
2018-08-27T06:25:48.367Z,71.60
2018-08-27T06:27:51.859Z,71.20
2018-08-27T06:29:55.361Z,70.90
2018-08-27T06:31:58.927Z,71.60
2018-08-27T06:34:02.501Z,70.90
2018-08-27T06:36:06.063Z,70.40
2018-08-27T06:38:09.578Z,72.00
2018-08-27T06:40:13.183Z,70.10
2018-08-27T06:42:16.633Z,69.70
2018-08-27T06:44:20.135Z,70.70
2018-08-27T06:46:23.727Z,71.20
2018-08-27T06:48:27.199Z,71.60
2018-08-27T06:50:30.799Z,71.80
2018-08-27T06:52:34.389Z,71.20
2018-08-27T06:54:37.900Z,70.80
2018-08-27T06:56:41.490Z,70.70
2018-08-27T06:58:44.956Z,70.90
2018-08-27T07:00:48.485Z,70.80
2018-08-27T07:02:51.964Z,71.40
2018-08-27T07:04:55.638Z,70.80
2018-08-27T07:06:59.583Z,70.50
2018-08-27T07:09:03.311Z,70.50
2018-08-27T07:11:06.903Z,71.20
2018-08-27T07:13:10.360Z,70.50
2018-08-27T07:15:14.013Z,71.70
2018-08-27T07:17:17.767Z,71.60
2018-08-27T07:19:21.290Z,71.30
2018-08-27T07:21:24.889Z,71.70
2018-08-27T07:23:28.356Z,71.20
2018-08-27T07:25:31.949Z,71.30
2018-08-27T07:27:35.623Z,72.10
2018-08-27T07:29:39.093Z,72.50
2018-08-27T07:31:42.566Z,72.10
2018-08-27T07:33:46.063Z,71.40
2018-08-27T07:35:49.640Z,70.80
2018-08-27T07:37:53.243Z,71.70
2018-08-27T07:39:56.756Z,72.90
2018-08-27T07:42:00.595Z,71.60
2018-08-27T07:44:04.131Z,72.60
2018-08-27T07:46:07.958Z,71.20
2018-08-27T07:48:11.519Z,72.50
2018-08-27T07:50:15.074Z,72.30
2018-08-27T07:52:18.628Z,72.50
2018-08-27T07:54:22.379Z,71.90
2018-08-27T07:56:25.935Z,71.20
2018-08-27T07:58:29.552Z,71.40
2018-08-27T08:00:33.106Z,72.70
2018-08-27T08:02:36.644Z,74.80
2018-08-27T08:04:40.139Z,74.10
2018-08-27T08:06:43.667Z,73.80
2018-08-27T08:08:47.235Z,73.00
2018-08-27T08:10:50.751Z,73.90
2018-08-27T08:12:54.353Z,74.50
2018-08-27T08:14:58.068Z,74.80
2018-08-27T08:17:01.707Z,72.30
2018-08-27T08:19:05.294Z,73.00
2018-08-27T08:21:08.811Z,71.50
2018-08-27T08:23:12.336Z,72.60
2018-08-27T08:25:16.056Z,70.90
2018-08-27T08:27:19.744Z,71.80
2018-08-27T08:29:23.244Z,71.00
2018-08-27T08:31:26.839Z,69.50
2018-08-27T08:33:30.288Z,70.30
2018-08-27T08:35:34.055Z,69.70
2018-08-27T08:37:37.602Z,69.60
2018-08-27T08:39:41.242Z,72.10
2018-08-27T08:41:44.830Z,71.60
2018-08-27T08:43:48.323Z,71.00
2018-08-27T08:45:51.887Z,70.90
2018-08-27T08:47:55.379Z,70.20
2018-08-27T08:49:59.066Z,69.30
2018-08-27T08:52:02.603Z,69.30
2018-08-27T08:54:06.588Z,69.40
2018-08-27T08:56:10.212Z,69.80
2018-08-27T08:58:13.740Z,71.40
2018-08-27T09:00:17.431Z,70.00
2018-08-27T09:02:20.969Z,70.10
2018-08-27T09:04:24.444Z,70.00
2018-08-27T09:06:28.006Z,70.60
2018-08-27T09:08:31.513Z,70.90
2018-08-27T09:10:35.059Z,68.90
2018-08-27T09:12:38.613Z,68.20
2018-08-27T09:14:42.159Z,68.40
2018-08-27T09:16:45.683Z,67.80
2018-08-27T09:18:49.180Z,66.70
2018-08-27T09:20:52.752Z,66.20
2018-08-27T09:22:56.252Z,65.50
2018-08-27T09:24:59.821Z,65.30
2018-08-27T09:27:03.424Z,66.00
2018-08-27T09:29:06.920Z,64.50
2018-08-27T09:31:10.489Z,65.40
2018-08-27T09:33:14.044Z,65.60
2018-08-27T09:35:17.648Z,63.90
2018-08-27T09:37:21.151Z,64.60
2018-08-27T09:39:24.751Z,63.30
2018-08-27T09:41:28.302Z,63.70
2018-08-27T09:43:31.800Z,63.50
2018-08-27T09:45:35.304Z,63.30
2018-08-27T09:47:38.795Z,59.90
2018-08-27T09:49:42.305Z,60.60
2018-08-27T09:51:45.959Z,58.50
2018-08-27T09:53:49.516Z,59.50
2018-08-27T09:55:53.057Z,61.10
2018-08-27T09:57:56.534Z,61.80
2018-08-27T10:00:00.041Z,61.40
2018-08-27T10:02:04.450Z,62.60
2018-08-27T10:04:07.932Z,60.00
2018-08-27T10:06:11.455Z,62.90
2018-08-27T10:08:14.943Z,60.20
2018-08-27T10:10:18.456Z,59.40
2018-08-27T10:12:22.049Z,58.70
2018-08-27T10:14:25.537Z,58.50
2018-08-27T10:16:29.148Z,59.80
2018-08-27T10:18:32.644Z,59.40
2018-08-27T10:20:36.144Z,59.70
2018-08-27T10:22:39.883Z,58.80
2018-08-27T10:24:43.263Z,60.10
2018-08-27T10:26:46.813Z,57.20
2018-08-27T10:28:50.343Z,59.50
2018-08-27T10:30:53.817Z,58.40
2018-08-27T10:32:57.337Z,60.50
2018-08-27T10:35:00.835Z,58.30
2018-08-27T10:37:04.400Z,58.00
2018-08-27T10:39:09.252Z,56.50
2018-08-27T10:41:12.967Z,57.30
2018-08-27T10:43:16.504Z,58.00
2018-08-27T10:45:20.092Z,58.50
2018-08-27T10:47:23.613Z,57.80
2018-08-27T10:49:27.104Z,57.00
2018-08-27T10:51:30.627Z,57.70
2018-08-27T10:53:34.173Z,55.50
2018-08-27T10:55:37.752Z,55.40
2018-08-27T10:57:41.389Z,55.00
2018-08-27T10:59:44.880Z,55.60
2018-08-27T11:01:48.376Z,55.60
2018-08-27T11:03:51.860Z,56.10
2018-08-27T11:05:55.360Z,55.20
2018-08-27T11:07:59.007Z,56.70
2018-08-27T11:10:02.499Z,57.00
2018-08-27T11:12:06.023Z,53.60
2018-08-27T11:14:09.509Z,54.50
2018-08-27T11:16:13.073Z,55.90
2018-08-27T11:18:16.571Z,55.30
2018-08-27T11:20:20.325Z,56.40
2018-08-27T11:22:23.864Z,56.40
2018-08-27T11:24:27.381Z,55.40
2018-08-27T11:26:35.464Z,56.80
2018-08-27T11:28:38.846Z,57.20
2018-08-27T11:30:42.509Z,60.70
2018-08-27T11:32:46.068Z,59.10
2018-08-27T11:34:49.544Z,58.20
2018-08-27T11:36:53.043Z,59.20
2018-08-27T11:38:56.600Z,58.40
2018-08-27T11:41:00.315Z,57.80
2018-08-27T11:43:03.882Z,59.80
2018-08-27T11:45:07.983Z,58.40
2018-08-27T11:47:11.499Z,58.00
2018-08-27T11:49:15.005Z,58.20
2018-08-27T11:51:18.518Z,58.20
2018-08-27T11:53:22.178Z,59.50
2018-08-27T11:55:25.679Z,58.00
2018-08-27T11:57:29.410Z,59.10
2018-08-27T11:59:32.926Z,59.40
2018-08-27T12:01:36.738Z,59.70
2018-08-27T12:03:40.455Z,59.50
2018-08-27T12:05:44.007Z,59.40
2018-08-27T12:07:47.517Z,57.30
2018-08-27T12:09:51.039Z,57.80
2018-08-27T12:11:54.574Z,57.80
2018-08-27T12:13:58.085Z,58.40
2018-08-27T12:16:01.692Z,58.50
2018-08-27T12:18:05.391Z,57.70
2018-08-27T12:20:09.063Z,58.20
2018-08-27T12:22:12.929Z,58.20
2018-08-27T12:24:16.451Z,58.60
2018-08-27T12:26:20.075Z,60.10
2018-08-27T12:28:23.688Z,57.90
2018-08-27T12:30:27.171Z,58.60
2018-08-27T12:32:30.878Z,57.90
2018-08-27T12:34:34.447Z,58.00
2018-08-27T12:36:38.093Z,58.00
2018-08-27T12:38:41.856Z,57.40
2018-08-27T12:40:45.699Z,56.60
2018-08-27T12:42:49.067Z,56.60
2018-08-27T12:44:52.750Z,57.70
2018-08-27T12:46:56.245Z,56.40
2018-08-27T12:49:00.128Z,56.20
2018-08-27T12:51:03.668Z,57.10
2018-08-27T12:53:07.362Z,55.60
2018-08-27T12:55:10.975Z,55.20
2018-08-27T12:57:14.601Z,54.30
2018-08-27T12:59:18.111Z,55.00
2018-08-27T13:01:21.605Z,55.70
2018-08-27T13:03:25.256Z,56.30
2018-08-27T13:05:28.771Z,55.60
2018-08-27T13:07:32.336Z,55.30
2018-08-27T13:09:35.873Z,54.90
2018-08-27T13:11:40.062Z,55.10
2018-08-27T13:13:43.669Z,56.10
2018-08-27T13:15:47.789Z,55.10
2018-08-27T13:17:51.328Z,54.70
2018-08-27T13:19:54.864Z,54.90
2018-08-27T13:21:59.419Z,54.10
2018-08-27T13:24:03.102Z,55.00
2018-08-27T13:26:07.163Z,54.50
2018-08-27T13:28:10.680Z,56.10
2018-08-27T13:30:14.303Z,57.50
2018-08-27T13:32:18.023Z,58.80
2018-08-27T13:34:21.571Z,59.40
2018-08-27T13:36:25.144Z,59.00
2018-08-27T13:38:28.671Z,58.50
2018-08-27T13:40:32.209Z,59.60
2018-08-27T13:42:35.775Z,60.00
2018-08-27T13:44:39.293Z,60.30
2018-08-27T13:46:42.770Z,61.20
2018-08-27T13:48:46.543Z,61.20
2018-08-27T13:50:49.972Z,61.90
2018-08-27T13:52:53.474Z,62.40
2018-08-27T13:54:56.975Z,61.10
2018-08-27T13:57:00.893Z,60.00
2018-08-27T13:59:04.433Z,61.10
2018-08-27T14:01:07.935Z,61.80
2018-08-27T14:03:11.431Z,62.30
2018-08-27T14:05:15.040Z,62.30
2018-08-27T14:07:18.479Z,62.50
2018-08-27T14:09:22.325Z,62.20
2018-08-27T14:11:25.802Z,65.10
2018-08-27T14:13:29.318Z,61.60
2018-08-27T14:15:33.124Z,61.50
2018-08-27T14:17:36.620Z,61.40
2018-08-27T14:19:40.419Z,61.90
2018-08-27T14:21:43.846Z,62.50
2018-08-27T14:23:47.501Z,61.60
2018-08-27T14:25:50.993Z,61.00
2018-08-27T14:27:54.507Z,61.10
2018-08-27T14:29:58.077Z,61.90
2018-08-27T14:32:01.914Z,61.50
2018-08-27T14:34:05.417Z,59.70
2018-08-27T14:36:09.059Z,59.70
2018-08-27T14:38:12.596Z,60.50
2018-08-27T14:40:16.103Z,60.40
2018-08-27T14:42:19.707Z,60.40
2018-08-27T14:44:23.147Z,60.90
2018-08-27T14:46:26.648Z,61.60
2018-08-27T14:48:30.143Z,61.10
2018-08-27T14:50:33.740Z,61.10
2018-08-27T14:52:37.324Z,61.20
2018-08-27T14:54:40.866Z,60.50
2018-08-27T14:56:44.434Z,60.00
2018-08-27T14:58:48.198Z,60.40
2018-08-27T15:00:57.138Z,60.10
2018-08-27T15:03:00.701Z,60.20
2018-08-27T15:05:04.317Z,60.10
2018-08-27T15:07:07.820Z,59.80
2018-08-27T15:09:11.323Z,58.90
2018-08-27T15:11:14.931Z,59.30
2018-08-27T15:13:18.565Z,59.00
2018-08-27T15:15:22.364Z,59.50
2018-08-27T15:17:25.927Z,58.90
2018-08-27T15:19:29.426Z,59.00
2018-08-27T15:21:33.112Z,59.50
2018-08-27T15:23:36.722Z,59.60
2018-08-27T15:25:40.746Z,60.10
2018-08-27T15:27:44.250Z,60.00
2018-08-27T15:29:47.832Z,59.60
2018-08-27T15:31:51.471Z,58.90
2018-08-27T15:33:55.007Z,59.30
2018-08-27T15:35:58.544Z,58.60
2018-08-27T15:38:02.120Z,59.60
2018-08-27T15:40:06.244Z,58.80
2018-08-27T15:42:09.965Z,58.70
2018-08-27T15:44:13.654Z,59.20
2018-08-27T15:46:22.539Z,59.90
2018-08-27T15:48:26.220Z,58.80
2018-08-27T15:50:29.814Z,59.00
2018-08-27T15:52:33.266Z,59.00
2018-08-27T15:54:36.756Z,59.30
2018-08-27T15:56:41.082Z,59.70
2018-08-27T15:58:44.670Z,58.40
2018-08-27T16:00:48.248Z,58.80
2018-08-27T16:02:51.895Z,58.10
2018-08-27T16:04:55.451Z,58.80
2018-08-27T16:06:59.091Z,58.50
2018-08-27T16:09:02.684Z,59.20
2018-08-27T16:11:06.198Z,58.50
2018-08-27T16:13:09.694Z,58.60
2018-08-27T16:15:13.207Z,58.00
2018-08-27T16:17:16.796Z,59.40
2018-08-27T16:19:20.438Z,59.30
2018-08-27T16:21:23.925Z,59.30
2018-08-27T16:23:27.434Z,59.60
2018-08-27T16:25:30.935Z,58.90
2018-08-27T16:27:38.917Z,59.30
2018-08-27T16:29:42.694Z,60.10
2018-08-27T16:31:46.243Z,59.70
2018-08-27T16:33:49.744Z,60.00
2018-08-27T16:35:53.216Z,59.90
2018-08-27T16:37:56.749Z,60.10
2018-08-27T16:40:00.304Z,59.90
2018-08-27T16:42:03.924Z,60.30
2018-08-27T16:44:07.455Z,60.80
2018-08-27T16:46:10.963Z,61.20
2018-08-27T16:48:14.532Z,61.30
2018-08-27T16:50:18.015Z,61.00
2018-08-27T16:52:21.692Z,61.60
2018-08-27T16:54:25.254Z,62.20
2018-08-27T16:56:29.084Z,62.60
2018-08-27T16:58:32.651Z,63.50
2018-08-27T17:00:36.183Z,64.60
2018-08-27T17:02:39.850Z,64.30
2018-08-27T17:04:43.507Z,63.90
2018-08-27T17:06:47.015Z,63.50
2018-08-27T17:08:50.504Z,64.00
2018-08-27T17:10:54.009Z,63.90
2018-08-27T17:12:57.554Z,63.50
2018-08-27T17:15:01.319Z,64.20
2018-08-27T17:17:05.147Z,64.00
2018-08-27T17:19:08.756Z,64.30
2018-08-27T17:21:12.278Z,65.00
2018-08-27T17:23:15.792Z,65.10
2018-08-27T17:25:19.546Z,65.30
2018-08-27T17:27:23.185Z,65.00
2018-08-27T17:29:26.665Z,65.00
2018-08-27T17:31:30.151Z,64.50
2018-08-27T17:33:33.887Z,64.40
2018-08-27T17:35:40.358Z,64.40
2018-08-27T17:37:44.111Z,65.00
2018-08-27T17:39:47.810Z,64.50
2018-08-27T17:41:51.307Z,64.80
2018-08-27T17:44:01.478Z,64.90
2018-08-27T17:46:05.246Z,64.80
2018-08-27T17:48:08.747Z,64.00
2018-08-27T17:50:12.426Z,64.00
2018-08-27T17:52:15.926Z,64.80
2018-08-27T17:54:19.475Z,66.00
2018-08-27T17:56:23.005Z,64.80
2018-08-27T17:58:26.723Z,64.50
2018-08-27T18:00:30.323Z,64.50
2018-08-27T18:02:33.944Z,64.40
2018-08-27T18:04:37.630Z,64.50
2018-08-27T18:06:41.280Z,64.70
2018-08-27T18:08:45.096Z,64.80
2018-08-27T18:10:48.636Z,65.20
2018-08-27T18:12:52.414Z,65.50
2018-08-27T18:14:55.931Z,65.40
2018-08-27T18:16:59.816Z,65.70
2018-08-27T18:19:03.512Z,65.70
2018-08-27T18:21:07.247Z,66.10
2018-08-27T18:23:10.833Z,66.00
2018-08-27T18:25:14.403Z,66.60
2018-08-27T18:27:18.260Z,67.60
2018-08-27T18:29:21.886Z,67.00
2018-08-27T18:31:25.423Z,67.50
2018-08-27T18:33:29.488Z,67.40
2018-08-27T18:35:33.336Z,67.60
2018-08-27T18:37:36.924Z,68.00
2018-08-27T18:39:40.776Z,68.10
2018-08-27T18:41:44.389Z,68.20
2018-08-27T18:43:48.166Z,68.40
2018-08-27T18:45:51.736Z,68.50
2018-08-27T18:47:55.353Z,68.60
2018-08-27T18:49:59.190Z,67.80
2018-08-27T18:52:02.762Z,67.30
2018-08-27T18:54:06.945Z,67.40
2018-08-27T18:56:10.676Z,68.30
2018-08-27T18:58:14.406Z,68.80
2018-08-27T19:00:18.029Z,69.80
2018-08-27T19:02:21.834Z,69.80
2018-08-27T19:04:25.871Z,69.80
2018-08-27T19:06:29.735Z,69.80
2018-08-27T19:08:33.632Z,70.00
2018-08-27T19:10:38.171Z,70.10
2018-08-27T19:12:42.006Z,70.20
2018-08-27T19:14:45.880Z,70.30
2018-08-27T19:16:49.691Z,70.40
2018-08-27T19:18:53.733Z,70.80
2018-08-27T19:20:57.602Z,71.30
2018-08-27T19:23:01.421Z,71.40
2018-08-27T19:25:05.422Z,71.40
2018-08-27T19:27:09.381Z,71.90
2018-08-27T19:29:13.253Z,71.20
2018-08-27T19:31:17.249Z,69.80
2018-08-27T19:33:21.206Z,70.90
2018-08-27T19:35:25.119Z,70.50
2018-08-27T19:37:28.900Z,70.30
2018-08-27T19:39:32.830Z,70.10
2018-08-27T19:41:36.882Z,70.10
2018-08-27T19:43:40.836Z,71.00
2018-08-27T19:45:44.518Z,71.40
2018-08-27T19:47:48.053Z,70.50
2018-08-27T19:49:51.664Z,71.40
2018-08-27T19:51:55.239Z,71.60
2018-08-27T19:53:58.773Z,71.60
2018-08-27T19:56:02.356Z,71.60
2018-08-27T19:58:06.016Z,71.50
2018-08-27T20:00:09.575Z,71.40
2018-08-27T20:02:13.131Z,71.70
2018-08-27T20:04:16.673Z,71.80
2018-08-27T20:06:20.275Z,72.00
2018-08-27T20:08:23.739Z,71.90
2018-08-27T20:10:27.305Z,71.80
2018-08-27T20:12:30.871Z,72.20
2018-08-27T20:14:34.438Z,70.90
2018-08-27T20:16:38.250Z,72.00
2018-08-27T20:18:41.728Z,71.30
2018-08-27T20:20:45.300Z,71.80
2018-08-27T20:22:48.842Z,71.60
2018-08-27T20:24:52.789Z,71.80
2018-08-27T20:26:56.376Z,72.10
2018-08-27T20:29:00.056Z,72.30
2018-08-27T20:31:03.620Z,71.90
2018-08-27T20:33:07.269Z,71.80
2018-08-27T20:35:10.818Z,71.20
2018-08-27T20:37:14.580Z,71.00
2018-08-27T20:39:18.257Z,70.80
2018-08-27T20:41:21.776Z,70.80
2018-08-27T20:43:25.293Z,70.60
2018-08-27T20:45:28.951Z,70.80
2018-08-27T20:47:32.669Z,70.80
2018-08-27T20:49:36.264Z,71.00
2018-08-27T20:51:39.780Z,71.80
2018-08-27T20:53:43.326Z,71.40
2018-08-27T20:55:46.866Z,72.20
2018-08-27T20:57:50.412Z,71.80
2018-08-27T20:59:54.132Z,72.10
2018-08-27T21:01:57.713Z,72.10
2018-08-27T21:04:01.355Z,72.50
2018-08-27T21:06:04.953Z,72.40
2018-08-27T21:08:08.844Z,72.60
2018-08-27T21:10:12.657Z,72.70
2018-08-27T21:12:16.041Z,72.90
2018-08-27T21:15:32.214Z,72.50
2018-08-27T21:17:36.336Z,72.60
2018-08-27T21:19:39.904Z,72.90
2018-08-27T21:21:43.506Z,73.20
2018-08-27T21:23:47.069Z,73.10
2018-08-27T21:25:50.620Z,72.90
2018-08-27T21:27:54.272Z,72.90
2018-08-27T21:29:57.870Z,72.90
2018-08-27T21:32:01.486Z,72.90
2018-08-27T21:34:05.016Z,73.00
2018-08-27T21:36:08.583Z,73.20
2018-08-27T21:38:12.083Z,73.60
2018-08-27T21:40:15.643Z,73.90
2018-08-27T21:42:19.154Z,74.20
2018-08-27T21:44:22.661Z,74.60
2018-08-27T21:46:26.218Z,74.00
2018-08-27T21:48:29.737Z,73.80
2018-08-27T21:50:33.296Z,74.60
2018-08-27T21:52:36.971Z,73.90
2018-08-27T21:54:40.548Z,74.20
2018-08-27T21:56:44.140Z,74.80
2018-08-27T21:58:47.878Z,74.80
2018-08-27T22:00:56.073Z,74.80
2018-08-27T22:03:04.784Z,74.80
2018-08-27T22:05:08.372Z,75.00
2018-08-27T22:07:12.019Z,74.80
2018-08-27T22:09:15.679Z,74.70
2018-08-27T22:11:19.178Z,75.30
2018-08-27T22:13:22.670Z,75.00
2018-08-27T22:15:26.180Z,75.20
2018-08-27T22:17:29.732Z,76.10
2018-08-27T22:19:33.396Z,75.80
2018-08-27T22:21:36.927Z,76.10
2018-08-27T22:23:40.411Z,75.60
2018-08-27T22:25:44.078Z,75.70
2018-08-27T22:27:47.587Z,75.50
2018-08-27T22:29:51.171Z,75.80
2018-08-27T22:31:54.723Z,76.40
2018-08-27T22:33:58.598Z,76.10
2018-08-27T22:36:02.206Z,76.60
2018-08-27T22:38:05.890Z,76.60
2018-08-27T22:40:09.520Z,77.10
2018-08-27T22:42:13.019Z,76.90
2018-08-27T22:44:16.536Z,76.90
2018-08-27T22:46:20.175Z,77.50
2018-08-27T22:48:23.711Z,77.30
2018-08-27T22:50:27.247Z,77.30
2018-08-27T22:52:30.808Z,77.00
2018-08-27T22:54:34.334Z,77.40
2018-08-27T22:56:38.017Z,77.70
2018-08-27T22:58:41.499Z,77.20
2018-08-27T23:00:45.016Z,77.30
2018-08-27T23:02:53.884Z,77.60
2018-08-27T23:04:57.743Z,78.40
2018-08-27T23:07:01.304Z,77.60
2018-08-27T23:09:05.789Z,78.70
2018-08-27T23:11:09.328Z,79.50
2018-08-27T23:13:12.945Z,79.30
2018-08-27T23:15:16.428Z,79.30
2018-08-27T23:17:20.052Z,78.80
2018-08-27T23:19:23.804Z,79.00
2018-08-27T23:21:27.335Z,79.30
2018-08-27T23:23:30.837Z,79.30
2018-08-27T23:25:34.326Z,78.90
2018-08-27T23:27:37.824Z,78.60
2018-08-27T23:29:41.486Z,78.90
2018-08-27T23:31:45.044Z,79.10
2018-08-27T23:33:48.640Z,79.20
2018-08-27T23:35:52.238Z,78.90
2018-08-27T23:37:55.764Z,79.00
2018-08-27T23:39:59.316Z,78.70
2018-08-27T23:42:02.862Z,78.40
2018-08-27T23:44:06.413Z,78.20
2018-08-27T23:46:10.150Z,78.40
2018-08-27T23:48:13.826Z,78.90
2018-08-27T23:50:17.316Z,78.90
2018-08-27T23:52:20.840Z,79.20
2018-08-27T23:54:24.424Z,79.60
2018-08-27T23:56:27.937Z,80.00
2018-08-27T23:58:31.490Z,79.90
